Latest Weather Observations for Bulman

IDD60801

Issued at 7:05 am CST Wednesday 26 November 2014 (issued every 30 minutes, with the page automatically refreshed every 10 minutes)

About weather observations | Map of weather stations | Latest weather observations for NT | Other Formats
Station Details ID: 014627 Name: BULMAN Lat: -13.67 Lon: 134.34 Height: 103.4 m
Data from the previous 72 hours. | See also: Recent months for locations in Northern Territory
Date/Time
CST
Temp
°C
App
Temp
°C
Dew
Point
Rel
Hum
%
Delta-T
°C
Wind Press
QNH
hPa
Press
MSL
hPa
Rain
since 9 am
mm
Dir
 
Spd
km/h
Gust
km/h
Spd
kts
Gust
kts
26/07:00am 26.7 31.1 23.4 82 2.3 SW 6 11 3 6 1009.0 1008.2 0.0
26/06:30am 24.9 30.5 23.5 92 1.0 CALM 0 0 0 0 1008.8 1008.0 0.0
26/06:00am 24.8 30.3 23.4 92 1.0 CALM 0 0 0 0 1008.4 1007.6 0.0
26/05:30am 25.1 30.5 23.3 90 1.2 CALM 0 0 0 0 1008.2 1007.4 0.0
26/05:00am 25.5 30.8 23.0 86 1.7 CALM 0 0 0 0 1008.0 1007.2 0.0
26/04:30am 25.6 31.0 23.3 87 1.6 CALM 0 0 0 0 1007.9 1007.1 0.0
26/04:00am 25.4 30.7 23.1 87 1.6 CALM 0 0 0 0 1007.7 1006.8 0.0
26/03:30am 25.6 30.9 23.1 86 1.7 CALM 0 0 0 0 1007.5 1006.6 0.0
26/03:00am 25.8 30.1 23.3 86 1.7 WSW 6 9 3 5 1007.6 1006.7 0.0
26/02:30am 26.2 31.3 23.3 84 2.0 WSW 2 9 1 5 1007.6 1006.7 0.0
26/02:00am 26.6 30.7 22.9 80 2.5 W 6 9 3 5 1007.6 1006.7 0.0
26/01:30am 26.9 30.6 22.5 77 3.0 NW 7 11 4 6 1008.0 1007.2 0.0
26/01:00am 26.7 30.6 23.0 80 2.5 NW 7 9 4 5 1008.6 1007.8 0.0
26/12:30am 26.6 30.8 23.1 81 2.4 NNW 6 7 3 4 1008.9 1008.1 0.0
26/12:00am 26.8 30.4 23.1 80 2.5 NW 9 13 5 7 1009.1 1008.3 0.0
 
Date/Time
CST
Temp
°C
App
Temp
°C
Dew
Point
Rel
Hum
%
Delta-T
°C
Wind Press
QNH
hPa
Press
MSL
hPa
Rain
since 9 am
mm
Dir
 
Spd
km/h
Gust
km/h
Spd
kts
Gust
kts
25/11:30pm 27.0 30.7 23.3 80 2.5 NW 9 15 5 8 1009.5 1008.7 0.0
25/11:00pm 27.4 31.0 23.0 77 3.0 NW 9 15 5 8 1009.8 1009.0 0.0
25/10:30pm 27.3 30.9 23.1 78 2.9 NNW 9 13 5 7 1009.9 1009.1 0.0
25/10:00pm 27.3 30.7 23.3 79 2.7 NW 11 20 6 11 1009.9 1009.1 0.0
25/09:30pm 27.4 30.8 23.4 79 2.7 NNW 11 17 6 9 1009.9 1009.1 0.0
25/09:00pm 28.0 29.3 22.7 73 3.6 NW 20 26 11 14 1009.1 1008.3 0.0
25/08:30pm 27.7 30.9 22.4 73 3.6 NNW 9 15 5 8 1008.7 1007.9 0.0
25/08:00pm 28.3 30.6 22.1 69 4.2 W 13 20 7 11 1007.6 1006.7 0.0
25/07:30pm 29.5 30.0 20.9 60 5.8 SSW 19 26 10 14 1007.2 1006.3 0.0
25/07:00pm 31.8 33.1 19.4 47 8.2 SW 11 20 6 11 1006.6 1005.7 0.0
25/06:30pm 35.4 35.8 16.2 32 12.3 NE 9 15 5 8 1005.4 1004.6 0.0
25/06:00pm 35.6 35.8 16.8 32 12.1 NNE 11 17 6 9 1005.0 1004.2 0.0
25/05:30pm 36.0 36.0 16.2 31 12.7 NNE 11 15 6 8 1004.6 1003.8 0.0
25/05:00pm 36.3 37.1 17.4 32 12.3 NNE 9 15 5 8 1004.4 1003.6 0.0
25/04:30pm 36.5 37.0 16.6 30 12.8 N 9 15 5 8 1004.4 1003.6 0.0
25/04:00pm 36.3 37.4 17.0 32 12.5 NNE 7 11 4 6 1004.4 1003.6 0.0
25/03:30pm 37.0 37.3 17.1 31 12.9 NE 11 19 6 10 1004.6 1003.8 0.0
25/03:00pm 36.3 37.5 17.4 32 12.3 NNE 7 15 4 8 1005.1 1004.3 0.0
25/02:30pm 36.2 37.4 18.3 34 11.8 N 9 15 5 8 1005.7 1004.9 0.0
25/02:00pm 36.7 38.5 19.6 36 11.4 WNW 9 15 5 8 1006.5 1005.6 0.0
25/01:30pm 35.3 37.3 20.0 40 10.3 NNW 9 17 5 9 1007.3 1006.4 0.0
25/01:00pm 34.2 36.7 20.2 43 9.4 N 7 15 4 8 1008.1 1007.3 0.0
25/12:30pm 35.6 37.9 19.9 39 10.5 N 7 15 4 8 1008.4 1007.6 0.0
25/12:00pm 34.3 35.8 20.6 44 9.2 NNW 13 19 7 10 1008.7 1007.9 0.0
25/11:30am 33.2 35.4 20.4 47 8.6 NNE 9 15 5 8 1009.4 1008.6 0.0
25/11:00am 33.1 35.4 21.3 50 8.0 N 11 19 6 10 1009.7 1008.9 0.0
25/10:30am 33.1 35.9 20.9 48 8.2 N 7 13 4 7 1010.0 1009.2 0.0
25/10:00am 32.2 35.4 21.7 54 7.1 N 7 13 4 7 1010.2 1009.4 0.0
25/09:30am 31.0 34.2 22.3 60 5.9 NNW 9 13 5 7 1010.3 1009.5 0.0
25/09:00am 30.5 33.6 22.1 61 5.7 N 9 13 5 7 1010.2 1009.4 5.2
25/08:30am 29.1 33.2 23.3 71 4.0 N 7 11 4 6 1010.2 1009.4 5.2
25/08:00am 27.9 32.6 24.3 81 2.5 N 7 9 4 5 1010.1 1009.3 5.2
25/07:30am 27.3 31.4 23.3 79 2.7 N 7 9 4 5 1010.0 1009.2 5.2
25/07:00am 26.7 31.1 23.8 84 2.0 NNW 7 9 4 5 1009.8 1009.0 5.2
25/06:30am 26.2 31.6 23.9 87 1.6 NNW 2 6 1 3 1009.6 1008.8 5.2
25/06:00am 26.3 32.3 24.2 88 1.5 CALM 0 0 0 0 1009.3 1008.5 5.2
25/05:30am 26.2 31.9 23.7 86 1.7 CALM 0 0 0 0 1009.2 1008.4 5.2
25/05:00am 26.0 31.8 24.0 89 1.4 CALM 0 0 0 0 1008.8 1008.0 5.2
25/04:30am 26.1 31.6 24.1 89 1.4 N 2 7 1 4 1008.6 1007.8 5.2
25/04:00am 26.3 31.8 23.4 84 2.0 CALM 0 0 0 0 1008.7 1007.9 5.2
25/03:30am 26.3 31.5 23.6 85 1.9 SW 2 7 1 4 1008.9 1008.1 5.2
25/03:00am 26.2 31.8 23.5 85 1.9 CALM 0 0 0 0 1008.9 1008.1 5.2
25/02:30am 26.3 31.3 23.8 86 1.7 N 4 9 2 5 1009.0 1008.2 5.2
25/02:00am 26.2 30.6 23.5 85 1.9 NNE 6 7 3 4 1009.2 1008.4 5.2
25/01:30am 26.3 30.9 23.8 86 1.7 NW 6 7 3 4 1009.1 1008.3 5.2
25/01:00am 26.4 31.0 24.1 87 1.6 NNW 7 9 4 5 1009.3 1008.5 5.2
25/12:30am 26.5 30.9 23.8 85 1.9 NNW 7 11 4 6 1010.0 1009.2 5.2
25/12:00am 26.8 31.7 24.3 86 1.7 N 6 9 3 5 1010.3 1009.5 5.0
 
Date/Time
CST
Temp
°C
App
Temp
°C
Dew
Point
Rel
Hum
%
Delta-T
°C
Wind Press
QNH
hPa
Press
MSL
hPa
Rain
since 9 am
mm
Dir
 
Spd
km/h
Gust
km/h
Spd
kts
Gust
kts
24/11:30pm 26.7 31.4 24.0 85 1.9 N 6 9 3 5 1010.3 1009.5 5.0
24/11:00pm 26.6 31.2 24.1 86 1.7 WNW 7 9 4 5 1010.3 1009.5 5.0
24/10:30pm 26.5 30.6 24.0 86 1.7 NNW 9 13 5 7 1010.3 1009.5 5.0
24/10:00pm 26.6 30.9 23.7 84 2.0 N 7 13 4 7 1010.6 1009.8 5.0
24/09:30pm 27.3 32.2 24.4 84 2.0 WSW 6 11 3 6 1010.0 1009.2 5.0
24/09:00pm 28.5 32.3 22.7 71 4.0 W 7 13 4 7 1009.9 1009.1 5.0
24/08:30pm 27.8 31.8 23.8 79 2.8 SSW 9 13 5 7 1009.2 1008.4 5.0
24/08:00pm 27.4 31.2 24.0 82 2.4 NNE 11 19 6 10 1008.4 1007.6 4.8
24/07:30pm 26.8 31.3 23.9 84 2.0 NNW 7 15 4 8 1007.7 1006.8 4.2
24/07:00pm 26.6 29.8 23.7 84 2.0 NW 13 17 7 9 1006.8 1005.9 3.2
24/06:30pm 28.1 26.2 20.1 62 5.3 N 30 39 16 21 1005.9 1005.1 0.0
24/06:27pm 29.7 27.7 19.1 53 6.9 NNE 28 54 15 29 1005.7 1004.9 0.0
24/06:26pm 30.7 29.1 19.1 50 7.6 NNE 26 54 14 29 1005.6 1004.8 0.0
24/06:00pm 37.2 37.8 16.7 29 13.2 S 9 15 5 8 1005.0 1004.2 0.0
24/05:30pm 38.0 37.8 15.7 26 14.3 ESE 11 17 6 9 1004.8 1004.0 0.0
24/05:00pm 38.8 39.2 16.4 26 14.4 S 9 13 5 7 1004.8 1004.0 0.0
24/04:30pm 38.4 38.7 16.1 27 14.3 ESE 9 13 5 7 1004.5 1003.7 0.0
24/04:00pm 38.6 39.5 16.2 26 14.4 SW 6 15 3 8 1004.7 1003.9 0.0
24/03:30pm 39.4 40.0 16.9 26 14.7 W 9 15 5 8 1005.1 1004.3 0.0
24/03:00pm 37.8 38.6 17.2 29 13.4 SE 9 15 5 8 1005.7 1004.9 0.0
24/02:30pm 37.4 37.8 16.4 29 13.5 E 9 17 5 9 1006.5 1005.6 0.0
24/02:00pm 37.0 37.5 16.5 29 13.2 W 9 15 5 8 1007.3 1006.4 0.0
24/01:30pm 37.2 37.4 16.7 29 13.2 N 11 19 6 10 1008.1 1007.3 0.0
24/01:00pm 36.6 36.6 16.2 29 13.0 N 11 17 6 9 1009.0 1008.2 0.0
24/12:30pm 36.3 37.1 17.4 32 12.3 N 9 13 5 7 1009.8 1009.0 0.0
24/12:00pm 35.4 36.7 18.5 37 11.1 NNW 9 15 5 8 1010.4 1009.6 0.0
24/11:30am 35.3 36.8 18.8 37 10.9 N 9 17 5 9 1010.7 1009.9 0.0
24/11:00am 34.0 35.3 19.3 42 9.7 NNW 11 15 6 8 1011.1 1010.3 0.0
24/10:30am 34.0 36.0 20.7 45 9.0 NNE 11 17 6 9 1011.6 1010.8 0.0
24/10:00am 33.0 35.4 21.5 50 7.8 NNE 11 17 6 9 1011.9 1011.1 0.0
24/09:30am 31.7 33.2 20.6 51 7.4 N 13 20 7 11 1011.8 1011.0 0.0
24/09:00am 30.9 33.6 22.2 59 5.9 N 11 17 6 9 1011.7 1010.9 0.0
24/08:30am 29.5 32.0 22.5 66 4.8 NNW 13 17 7 9 1011.6 1010.8 0.0
24/08:00am 29.1 32.7 23.1 70 4.1 WNW 9 13 5 7 1011.6 1010.8 0.0
24/07:30am 28.4 32.4 23.1 73 3.6 WNW 7 11 4 6 1011.5 1010.7 0.0
24/07:00am 27.5 31.8 23.3 78 2.9 NNW 6 9 3 5 1011.2 1010.4 0.0
24/06:30am 26.9 30.6 23.2 80 2.5 NNW 9 11 5 6 1010.7 1009.9 0.0
24/06:00am 26.3 30.4 23.0 82 2.2 NNW 6 9 3 5 1010.1 1009.3 0.0
24/05:30am 26.5 30.4 23.0 81 2.4 N 7 9 4 5 1009.6 1008.8 0.0
24/05:00am 26.7 30.6 23.0 80 2.5 NNW 7 11 4 6 1009.3 1008.5 0.0
24/04:30am 26.9 30.8 22.9 79 2.7 N 7 11 4 6 1009.2 1008.4 0.0
24/04:00am 27.1 30.6 22.9 78 2.9 NNW 9 15 5 8 1009.1 1008.3 0.0
24/03:30am 27.3 30.2 23.1 78 2.9 NNW 13 17 7 9 1009.2 1008.4 0.0
24/03:00am 27.6 31.2 23.0 76 3.1 N 9 13 5 7 1009.4 1008.6 0.0
24/02:30am 27.8 31.2 22.7 74 3.5 NNW 9 13 5 7 1009.5 1008.7 0.0
24/02:00am 28.1 31.6 22.8 73 3.6 N 9 15 5 8 1009.7 1008.9 0.0
24/01:30am 28.5 31.5 22.7 71 4.0 NNE 11 17 6 9 1009.8 1009.0 0.0
24/01:00am 28.8 31.5 22.8 70 4.1 N 13 19 7 10 1010.1 1009.3 0.0
24/12:30am 29.3 32.2 22.5 67 4.6 N 11 17 6 9 1010.3 1009.5 0.0
24/12:00am 29.7 32.2 22.4 65 5.0 N 13 20 7 11 1010.6 1009.8 0.0
 
Date/Time
CST
Temp
°C
App
Temp
°C
Dew
Point
Rel
Hum
%
Delta-T
°C
Wind Press
QNH
hPa
Press
MSL
hPa
Rain
since 9 am
mm
Dir
 
Spd
km/h
Gust
km/h
Spd
kts
Gust
kts
23/11:30pm 30.2 32.5 22.1 62 5.5 NNE 13 15 7 8 1010.6 1009.8 0.0
23/11:00pm 30.7 33.0 22.0 59 5.9 NNE 13 20 7 11 1010.7 1009.9 0.0
23/10:30pm 31.3 33.7 21.5 56 6.6 N 11 19 6 10 1010.3 1009.5 0.0
23/10:00pm 31.8 33.7 21.3 53 7.1 N 13 20 7 11 1010.2 1009.4 0.0
23/09:30pm 32.3 33.8 21.2 52 7.5 N 15 28 8 15 1009.9 1009.1 0.0
23/09:00pm 33.3 33.6 20.4 46 8.7 NNE 19 32 10 17 1009.4 1008.6 0.0
23/08:30pm 34.7 34.0 17.4 35 11.2 NE 17 28 9 15 1008.7 1007.9 0.0
23/08:00pm 35.5 35.0 12.5 25 13.9 ENE 7 20 4 11 1007.9 1007.1 0.0
23/07:30pm 35.6 35.4 11.9 24 14.2 NE 4 7 2 4 1007.2 1006.3 0.0
23/07:00pm 36.9 36.5 12.4 23 14.9 NE 6 9 3 5 1006.8 1005.9 0.0
23/06:30pm 38.0 36.9 11.9 21 15.8 NE 9 17 5 9 1006.6 1005.7 0.0
23/06:00pm 39.1 37.2 10.4 18 17.1 ENE 11 20 6 11 1006.4 1005.5 0.0
23/05:30pm 39.3 37.0 10.6 18 17.2 ESE 13 20 7 11 1006.2 1005.4 0.0
23/05:00pm 39.9 37.3 9.3 16 17.9 NE 13 22 7 12 1006.4 1005.5 0.0
23/04:30pm 40.8 38.8 10.0 16 18.4 E 11 20 6 11 1006.4 1005.5 0.0
23/04:00pm 40.2 36.5 9.6 16 18.0 SE 19 24 10 13 1006.8 1005.9 0.0
23/03:30pm 41.1 40.0 12.1 18 17.8 ENE 9 13 5 7 1007.1 1006.2 0.0
23/03:00pm 39.4 36.9 9.8 17 17.5 ENE 13 28 7 15 1007.5 1006.6 0.0
23/02:30pm 39.8 38.2 10.2 17 17.6 NE 9 20 5 11 1008.2 1007.4 0.0
23/02:00pm 39.8 37.4 10.2 17 17.6 NNW 13 20 7 11 1008.8 1008.0 0.0
23/01:30pm 39.3 39.6 15.0 24 15.4 SE 7 13 4 7 1009.3 1008.5 0.0
23/01:00pm 37.5 37.9 16.4 28 13.6 NNW 9 13 5 7 1010.0 1009.2 0.0
23/12:30pm 36.0 38.3 18.6 36 11.5 WSW 4 9 2 5 1010.5 1009.7 0.0
23/12:00pm 36.4 37.9 18.9 35 11.6 NNE 9 15 5 8 1011.0 1010.2 0.0
23/11:30am 35.5 37.2 20.2 40 10.3 N 11 19 6 10 1011.6 1010.8 0.0
23/11:00am 34.3 37.0 21.4 47 8.8 NW 9 15 5 8 1012.1 1011.3 0.0
23/10:30am 33.4 36.2 21.5 49 8.1 NE 9 15 5 8 1012.6 1011.8 0.0
23/10:00am 32.7 35.8 22.2 54 7.2 N 9 13 5 7 1012.8 1012.0 0.0
23/09:30am 32.6 36.7 23.0 57 6.6 NW 6 9 3 5 1013.2 1012.4 0.0
23/09:00am 31.5 34.4 22.5 59 6.2 NNW 11 17 6 9 1013.2 1012.4 0.0
23/08:30am 30.6 33.5 22.5 62 5.5 NNW 11 17 6 9 1013.1 1012.3 0.0
23/08:00am 29.9 32.8 23.1 67 4.7 NW 13 22 7 12 1013.0 1012.2 0.0
23/07:30am 28.7 31.6 23.1 71 3.8 NW 13 19 7 10 1012.7 1011.9 0.0

Other Formats:

Comma delimited format used in spreadsheet applications
http://www.bom.gov.au/fwo/IDD60801/IDD60801.94143.axf

JavaScript Object Notation format (JSON) in row-major order
http://www.bom.gov.au/fwo/IDD60801/IDD60801.94143.json